^^
Grace C. Lehan Memorial Weather Station Historical Data
Daily Summary for July 24, 2021 Units:  Both    English   Metric
Daily Weekly Monthly Yearly
  High: Low: Average:
Temperature: 80.1 °F /  26.7 °C 51.7 °F /  10.9 °C 67.4 °F /  19.7 °C
Dew Point: 58.3 °F /  14.6 °C 49.2 °F /  9.6 °C 53 °F /  11.7 °C
Humidity: 92% 36.7% 63%
Wind Speed: 2.2mph /  3.5km/h - 0.2mph /  0.3km/h
Wind Gust: 12mph /  19.3km/h - -
Wind- - SE
Pressure: 30.38 in /  1028.7 hPa 30.27 in /  1024.9 hPa -
Precipitation: 0.00 in /  0 mm    
 
 
Tabular Data for July 24, 2021
Time Temperature Dew Point Pressure Wind Wind Speed Wind Gust Humidity Rainfall Rate (Hourly) solar
00:04 58.3 °F /  14.6 °C 52.2 °F /  11.2 °C 30.27in /  1024.9hPa Calm     80% 0.00in /  0mm 0 W/m2
00:09 58.2 °F /  14.6 °C 52.4 °F /  11.3 °C 30.27in /  1024.9hPa Calm     80.9% 0.00in /  0mm 0 W/m2
00:14 58.1 °F /  14.5 °C 52.3 °F /  11.3 °C 30.28in /  1025.3hPa Calm     81% 0.00in /  0mm 0 W/m2
00:19 58 °F /  14.4 °C 52.2 °F /  11.2 °C 30.28in /  1025.3hPa Calm     81% 0.00in /  0mm 0 W/m2
00:24 57.9 °F /  14.4 °C 52.4 °F /  11.3 °C 30.28in /  1025.3hPa Calm     82% 0.00in /  0mm 0 W/m2
00:29 57.7 °F /  14.3 °C 52.5 °F /  11.4 °C 30.28in /  1025.3hPa Calm     82.8% 0.00in /  0mm 0 W/m2
00:34 57.5 °F /  14.2 °C 52.4 °F /  11.3 °C 30.28in /  1025.3hPa Calm     83% 0.00in /  0mm 0 W/m2
00:39 57.4 °F /  14.1 °C 52.3 °F /  11.3 °C 30.28in /  1025.3hPa Calm     83% 0.00in /  0mm 0 W/m2
00:44 57.2 °F /  14 °C 52.1 °F /  11.2 °C 30.28in /  1025.3hPa Calm     83% 0.00in /  0mm 0 W/m2
00:49 57 °F /  13.9 °C 52.2 °F /  11.2 °C 30.28in /  1025.3hPa Calm     83.7% 0.00in /  0mm 0 W/m2
00:54 56.8 °F /  13.8 °C 52.1 °F /  11.2 °C 30.28in /  1025.3hPa Calm     84% 0.00in /  0mm 0 W/m2
00:59 56.7 °F /  13.7 °C 51.9 °F /  11.1 °C 30.28in /  1025.3hPa Calm     84% 0.00in /  0mm 0 W/m2
01:04 56.5 °F /  13.6 °C 51.8 °F /  11 °C 30.28in /  1025.3hPa Calm     84.3% 0.00in /  0mm 0 W/m2
01:09 56.4 °F /  13.6 °C 52 °F /  11.1 °C 30.28in /  1025.3hPa Calm     85% 0.00in /  0mm 0 W/m2
01:14 56.3 °F /  13.5 °C 51.9 °F /  11.1 °C 30.29in /  1025.6hPa Calm     85% 0.00in /  0mm 0 W/m2
01:19 56.2 °F /  13.4 °C 51.8 °F /  11 °C 30.29in /  1025.6hPa Calm     85% 0.00in /  0mm 0 W/m2
01:24 56.2 °F /  13.4 °C 51.7 °F /  10.9 °C 30.29in /  1025.6hPa Calm     85% 0.00in /  0mm 0 W/m2
01:29 56 °F /  13.3 °C 51.6 °F /  10.9 °C 30.29in /  1025.6hPa Calm     85% 0.00in /  0mm 0 W/m2
01:34 56 °F /  13.3 °C 51.6 °F /  10.9 °C 30.29in /  1025.6hPa Calm     85.3% 0.00in /  0mm 0 W/m2
01:39 55.9 °F /  13.3 °C 51.7 °F /  10.9 °C 30.29in /  1025.6hPa Calm     86% 0.00in /  0mm 0 W/m2
01:44 55.8 °F /  13.2 °C 51.6 °F /  10.9 °C 30.29in /  1025.6hPa Calm     86% 0.00in /  0mm 0 W/m2
01:49 55.7 °F /  13.2 °C 51.6 °F /  10.9 °C 30.29in /  1025.6hPa Calm     86% 0.00in /  0mm 0 W/m2
01:54 55.6 °F /  13.1 °C 51.5 °F /  10.8 °C 30.30in /  1026hPa Calm     86% 0.00in /  0mm 0 W/m2
01:59 55.5 °F /  13.1 °C 51.5 °F /  10.8 °C 30.30in /  1026hPa Calm     86.3% 0.00in /  0mm 0 W/m2
02:04 55.4 °F /  13 °C 51.6 °F /  10.9 °C 30.29in /  1025.6hPa Calm     87% 0.00in /  0mm 0 W/m2
02:09 55.3 °F /  12.9 °C 51.4 °F /  10.8 °C 30.30in /  1026hPa Calm     86.7% 0.00in /  0mm 0 W/m2
02:14 55.1 °F /  12.8 °C 51 °F /  10.6 °C 30.30in /  1026hPa Calm     86.1% 0.00in /  0mm 0 W/m2
02:19 55 °F /  12.8 °C 51.2 °F /  10.7 °C 30.30in /  1026hPa Calm     87% 0.00in /  0mm 0 W/m2
02:24 54.9 °F /  12.7 °C 51.1 °F /  10.6 °C 30.30in /  1026hPa Calm     87% 0.00in /  0mm 0 W/m2
02:29 54.8 °F /  12.7 °C 51 °F /  10.6 °C 30.30in /  1026hPa Calm     87% 0.00in /  0mm 0 W/m2
02:34 54.7 °F /  12.6 °C 50.9 °F /  10.5 °C 30.30in /  1026hPa Calm     87% 0.00in /  0mm 0 W/m2
02:39 54.6 °F /  12.6 °C 50.8 °F /  10.4 °C 30.30in /  1026hPa Calm     87% 0.00in /  0mm 0 W/m2
02:44 54.5 °F /  12.5 °C 50.7 °F /  10.4 °C 30.30in /  1026hPa Calm     87% 0.00in /  0mm 0 W/m2
02:49 54.4 °F /  12.4 °C 50.6 °F /  10.3 °C 30.30in /  1026hPa Calm     87% 0.00in /  0mm 0 W/m2
02:54 54.3 °F /  12.4 °C 50.5 °F /  10.3 °C 30.30in /  1026hPa Calm     87% 0.00in /  0mm 0 W/m2
02:59 54.2 °F /  12.3 °C 50.4 °F /  10.2 °C 30.30in /  1026hPa Calm     87.2% 0.00in /  0mm 0 W/m2
03:04 54 °F /  12.2 °C 50.3 °F /  10.2 °C 30.30in /  1026hPa Calm     87% 0.00in /  0mm 0 W/m2
03:09 53.9 °F /  12.2 °C 50.3 °F /  10.2 °C 30.30in /  1026hPa Calm     87.7% 0.00in /  0mm 0 W/m2
03:14 53.8 °F /  12.1 °C 50.3 °F /  10.2 °C 30.31in /  1026.3hPa Calm     88% 0.00in /  0mm 0 W/m2
03:19 53.7 °F /  12.1 °C 50.3 °F /  10.2 °C 30.31in /  1026.3hPa Calm     88% 0.00in /  0mm 0 W/m2
03:24 53.6 °F /  12 °C 50.1 °F /  10.1 °C 30.31in /  1026.3hPa Calm     88% 0.00in /  0mm 0 W/m2
03:29 53.5 °F /  11.9 °C 50 °F /  10 °C 30.30in /  1026hPa Calm     88% 0.00in /  0mm 0 W/m2
03:34 53.4 °F /  11.9 °C 50 °F /  10 °C 30.31in /  1026.3hPa Calm     88.2% 0.00in /  0mm 0 W/m2
03:39 53.3 °F /  11.8 °C 50.2 °F /  10.1 °C 30.31in /  1026.3hPa Calm     89% 0.00in /  0mm 0 W/m2
03:44 53.2 °F /  11.8 °C 50.1 °F /  10.1 °C 30.31in /  1026.3hPa Calm     89% 0.00in /  0mm 0 W/m2
03:49 53.2 °F /  11.8 °C 50 °F /  10 °C 30.31in /  1026.3hPa Calm     89% 0.00in /  0mm 0 W/m2
03:54 53.1 °F /  11.7 °C 50 °F /  10 °C 30.31in /  1026.3hPa Calm     89% 0.00in /  0mm 0 W/m2
03:59 53 °F /  11.7 °C 49.9 °F /  9.9 °C 30.31in /  1026.3hPa Calm     89% 0.00in /  0mm 0 W/m2
04:09 52.9 °F /  11.6 °C 50 °F /  10 °C 30.30in /  1026hPa Calm     90% 0.00in /  0mm 0 W/m2
04:14 52.8 °F /  11.6 °C 49.9 °F /  9.9 °C 30.31in /  1026.3hPa Calm     90% 0.00in /  0mm 0 W/m2
04:19 52.7 °F /  11.5 °C 49.9 °F /  9.9 °C 30.31in /  1026.3hPa Calm     90% 0.00in /  0mm 0 W/m2
04:24 52.6 °F /  11.4 °C 49.8 °F /  9.9 °C 30.31in /  1026.3hPa Calm     90% 0.00in /  0mm 0 W/m2
04:29 52.6 °F /  11.4 °C 49.7 °F /  9.8 °C 30.31in /  1026.3hPa Calm     90% 0.00in /  0mm 0 W/m2
04:34 52.5 °F /  11.4 °C 49.6 °F /  9.8 °C 30.31in /  1026.3hPa Calm     90% 0.00in /  0mm 0 W/m2
04:39 52.4 °F /  11.3 °C 49.6 °F /  9.8 °C 30.31in /  1026.3hPa Calm     90% 0.00in /  0mm 0 W/m2
04:44 52.3 °F /  11.3 °C 49.5 °F /  9.7 °C 30.32in /  1026.6hPa Calm     90% 0.00in /  0mm 0 W/m2
04:49 52.3 °F /  11.3 °C 49.5 °F /  9.7 °C 30.32in /  1026.6hPa Calm     90% 0.00in /  0mm 0 W/m2
04:54 52.2 °F /  11.2 °C 49.4 °F /  9.7 °C 30.32in /  1026.6hPa Calm     90% 0.00in /  0mm 0 W/m2
04:59 52.2 °F /  11.2 °C 49.3 °F /  9.6 °C 30.33in /  1027hPa Calm     90% 0.00in /  0mm 0 W/m2
05:04 52.1 °F /  11.2 °C 49.2 °F /  9.6 °C 30.33in /  1027hPa Calm     90% 0.00in /  0mm 0 W/m2
05:09 52 °F /  11.1 °C 49.2 °F /  9.6 °C 30.33in /  1027hPa Calm     90% 0.00in /  0mm 0 W/m2
05:14 51.9 °F /  11.1 °C 49.3 °F /  9.6 °C 30.33in /  1027hPa Calm     90.7% 0.00in /  0mm 0 W/m2
05:19 51.9 °F /  11.1 °C 49.3 °F /  9.6 °C 30.34in /  1027.3hPa Calm     91% 0.00in /  0mm 0 W/m2
05:24 51.8 °F /  11 °C 49.3 °F /  9.6 °C 30.34in /  1027.3hPa Calm     91% 0.00in /  0mm 0 W/m2
05:29 51.8 °F /  11 °C 49.3 °F /  9.6 °C 30.34in /  1027.3hPa Calm     91% 0.00in /  0mm 5 W/m2
05:34 51.8 °F /  11 °C 49.3 °F /  9.6 °C 30.34in /  1027.3hPa Calm     91% 0.00in /  0mm 7 W/m2
05:39 51.8 °F /  11 °C 49.3 °F /  9.6 °C 30.35in /  1027.7hPa Calm     91% 0.00in /  0mm 9 W/m2
05:44 51.7 °F /  10.9 °C 49.2 °F /  9.6 °C 30.35in /  1027.7hPa Calm     91% 0.00in /  0mm 11 W/m2
05:49 51.7 °F /  10.9 °C 49.2 °F /  9.6 °C 30.35in /  1027.7hPa Calm     91% 0.00in /  0mm 12 W/m2
05:54 51.7 °F /  10.9 °C 49.2 °F /  9.6 °C 30.35in /  1027.7hPa Calm     91% 0.00in /  0mm 16 W/m2
05:59 51.7 °F /  10.9 °C 49.2 °F /  9.6 °C 30.35in /  1027.7hPa Calm     91% 0.00in /  0mm 16 W/m2
06:04 51.8 °F /  11 °C 49.4 °F /  9.7 °C 30.35in /  1027.7hPa Calm     91.5% 0.00in /  0mm 18 W/m2
06:09 51.9 °F /  11.1 °C 49.7 °F /  9.8 °C 30.35in /  1027.7hPa Calm     92% 0.00in /  0mm 18 W/m2
06:14 52 °F /  11.1 °C 49.8 °F /  9.9 °C 30.36in /  1028hPa Calm     92% 0.00in /  0mm 19 W/m2
06:19 52.1 °F /  11.2 °C 49.9 °F /  9.9 °C 30.36in /  1028hPa Calm     92% 0.00in /  0mm 21 W/m2
06:24 52.3 °F /  11.3 °C 50 °F /  10 °C 30.36in /  1028hPa Calm     92% 0.00in /  0mm 23 W/m2
06:29 52.5 °F /  11.4 °C 50.2 °F /  10.1 °C 30.36in /  1028hPa Calm     92% 0.00in /  0mm 32 W/m2
06:34 52.7 °F /  11.5 °C 50.4 °F /  10.2 °C 30.36in /  1028hPa Calm     92% 0.00in /  0mm 42 W/m2
06:39 53 °F /  11.7 °C 50.8 °F /  10.4 °C 30.36in /  1028hPa Calm     92% 0.00in /  0mm 47 W/m2
06:44 53.4 °F /  11.9 °C 51.1 °F /  10.6 °C 30.36in /  1028hPa Calm     92% 0.00in /  0mm 54 W/m2
06:49 54 °F /  12.2 °C 51.7 °F /  10.9 °C 30.36in /  1028hPa Calm     92% 0.00in /  0mm 65 W/m2
06:54 54.7 °F /  12.6 °C 52.4 °F /  11.3 °C 30.37in /  1028.3hPa Calm     91.8% 0.00in /  0mm 67 W/m2
06:59 55.6 °F /  13.1 °C 52.5 °F /  11.4 °C 30.37in /  1028.3hPa NNE 0.2mph /  0.3km/h 2mph /  3.2km/h 89.4% 0.00in /  0mm 69 W/m2
07:04 56.5 °F /  13.6 °C 52.7 °F /  11.5 °C 30.37in /  1028.3hPa Calm   2mph /  3.2km/h 87% 0.00in /  0mm 70 W/m2
07:09 57.4 °F /  14.1 °C 53.1 °F /  11.7 °C 30.37in /  1028.3hPa Calm     85.5% 0.00in /  0mm 72 W/m2
07:14 58.3 °F /  14.6 °C 53.4 °F /  11.9 °C 30.37in /  1028.3hPa Calm     83.4% 0.00in /  0mm 74 W/m2
07:19 59.2 °F /  15.1 °C 53.2 °F /  11.8 °C 30.37in /  1028.3hPa Calm   1mph /  1.6km/h 80.5% 0.00in /  0mm 74 W/m2
07:24 59.9 °F /  15.5 °C 53.4 °F /  11.9 °C 30.37in /  1028.3hPa Calm   1mph /  1.6km/h 79.1% 0.00in /  0mm 192 W/m2
07:29 60.7 °F /  15.9 °C 53.6 °F /  12 °C 30.38in /  1028.7hPa NNE 0.2mph /  0.3km/h 2mph /  3.2km/h 77.6% 0.00in /  0mm 346 W/m2
07:34 61.5 °F /  16.4 °C 54.1 °F /  12.3 °C 30.37in /  1028.3hPa Calm   2mph /  3.2km/h 76.8% 0.00in /  0mm 366 W/m2
07:39 62.2 °F /  16.8 °C 54.3 °F /  12.4 °C 30.38in /  1028.7hPa Calm     75.2% 0.00in /  0mm 383 W/m2
07:44 62.9 °F /  17.2 °C 54.4 °F /  12.4 °C 30.38in /  1028.7hPa Calm   1mph /  1.6km/h 73.8% 0.00in /  0mm 408 W/m2
07:49 63.3 °F /  17.4 °C 54.1 °F /  12.3 °C 30.38in /  1028.7hPa Calm   1mph /  1.6km/h 72.1% 0.00in /  0mm 425 W/m2
07:54 63.6 °F /  17.6 °C 54.1 °F /  12.3 °C 30.37in /  1028.3hPa Calm   1mph /  1.6km/h 71.1% 0.00in /  0mm 441 W/m2
07:59 64.1 °F /  17.8 °C 54.2 °F /  12.3 °C 30.38in /  1028.7hPa NNE 0.1mph /  0.2km/h 3mph /  4.8km/h 70.1% 0.00in /  0mm 459 W/m2
08:00 64.3 °F /  17.9 °C 53.9 °F /  12.2 °C 30.37in /  1028.3hPa Calm   3mph /  4.8km/h 69% 0.00in /  0mm 459 W/m2
08:09 65.2 °F /  18.4 °C 54.2 °F /  12.3 °C 30.38in /  1028.7hPa Calm     67.6% 0.00in /  0mm 489 W/m2
08:14 65.7 °F /  18.7 °C 54.1 °F /  12.3 °C 30.38in /  1028.7hPa Calm     66.1% 0.00in /  0mm 508 W/m2
08:19 66.5 °F /  19.2 °C 55.2 °F /  12.9 °C 30.37in /  1028.3hPa Calm     67.1% 0.00in /  0mm 526 W/m2
08:24 67.3 °F /  19.6 °C 54.8 °F /  12.7 °C 30.37in /  1028.3hPa NNE 0.3mph /  0.5km/h 2mph /  3.2km/h 64.2% 0.00in /  0mm 541 W/m2
08:29 67.6 °F /  19.8 °C 54.8 °F /  12.7 °C 30.38in /  1028.7hPa NNE 0.2mph /  0.3km/h 2mph /  3.2km/h 63.4% 0.00in /  0mm 559 W/m2
08:34 67.9 °F /  19.9 °C 54.6 °F /  12.6 °C 30.38in /  1028.7hPa NNE 0.4mph /  0.6km/h 4mph /  6.4km/h 62.6% 0.00in /  0mm 573 W/m2
08:39 67.9 °F /  19.9 °C 54.2 °F /  12.3 °C 30.38in /  1028.7hPa Calm   4mph /  6.4km/h 61.6% 0.00in /  0mm 591 W/m2
08:44 68 °F /  20 °C 54.9 °F /  12.7 °C 30.38in /  1028.7hPa Calm   4mph /  6.4km/h 62.8% 0.00in /  0mm 606 W/m2
08:49 68.5 °F /  20.3 °C 55.2 °F /  12.9 °C 30.38in /  1028.7hPa Calm   4mph /  6.4km/h 62.3% 0.00in /  0mm 622 W/m2
08:54 69.1 °F /  20.6 °C 55.5 °F /  13.1 °C 30.38in /  1028.7hPa Calm   4mph /  6.4km/h 61.9% 0.00in /  0mm 636 W/m2
08:59 69.6 °F /  20.9 °C 55.8 °F /  13.2 °C 30.38in /  1028.7hPa Calm   4mph /  6.4km/h 61.5% 0.00in /  0mm 652 W/m2
09:04 70.1 °F /  21.2 °C 56.3 °F /  13.5 °C 30.38in /  1028.7hPa Calm   4mph /  6.4km/h 61.6% 0.00in /  0mm 666 W/m2
09:09 70.5 °F /  21.4 °C 56.5 °F /  13.6 °C 30.38in /  1028.7hPa Calm     61.2% 0.00in /  0mm 682 W/m2
09:14 71 °F /  21.7 °C 56.9 °F /  13.8 °C 30.38in /  1028.7hPa Calm     60.9% 0.00in /  0mm 691 W/m2
09:19 71.5 °F /  21.9 °C 56.8 °F /  13.8 °C 30.38in /  1028.7hPa NNE 0.3mph /  0.5km/h 3mph /  4.8km/h 59.6% 0.00in /  0mm 707 W/m2
09:24 71.8 °F /  22.1 °C 56 °F /  13.3 °C 30.38in /  1028.7hPa Calm   3mph /  4.8km/h 57.4% 0.00in /  0mm 722 W/m2
09:29 72.1 °F /  22.3 °C 56.2 °F /  13.4 °C 30.38in /  1028.7hPa NNE 0.1mph /  0.2km/h 3mph /  4.8km/h 57.3% 0.00in /  0mm 738 W/m2
09:34 72.8 °F /  22.7 °C 56.6 °F /  13.7 °C 30.38in /  1028.7hPa Calm   3mph /  4.8km/h 57% 0.00in /  0mm 754 W/m2
09:39 73.3 °F /  22.9 °C 57 °F /  13.9 °C 30.38in /  1028.7hPa Calm     56.6% 0.00in /  0mm 763 W/m2
09:44 73.5 °F /  23.1 °C 56.7 °F /  13.7 °C 30.38in /  1028.7hPa Calm     55.7% 0.00in /  0mm 777 W/m2
09:49 73.8 °F /  23.2 °C 57.8 °F /  14.3 °C 30.38in /  1028.7hPa NNE 0.1mph /  0.2km/h 2mph /  3.2km/h 57.3% 0.00in /  0mm 791 W/m2
09:54 74.4 °F /  23.6 °C 58.3 °F /  14.6 °C 30.38in /  1028.7hPa NNE 0.3mph /  0.5km/h 3mph /  4.8km/h 57.1% 0.00in /  0mm 803 W/m2
09:59 75.1 °F /  23.9 °C 58 °F /  14.4 °C 30.38in /  1028.7hPa NE 0.8mph /  1.3km/h 5mph /  8km/h 55.3% 0.00in /  0mm 817 W/m2
10:04 75.7 °F /  24.3 °C 57.9 °F /  14.4 °C 30.38in /  1028.7hPa NE 0.1mph /  0.2km/h 5mph /  8km/h 54% 0.00in /  0mm 835 W/m2
10:09 76.2 °F /  24.6 °C 57.7 °F /  14.3 °C 30.38in /  1028.7hPa NE 0.1mph /  0.2km/h 2mph /  3.2km/h 52.7% 0.00in /  0mm 844 W/m2
10:14 76.3 °F /  24.6 °C 56.2 °F /  13.4 °C 30.38in /  1028.7hPa Calm   2mph /  3.2km/h 49.7% 0.00in /  0mm 851 W/m2
10:19 76.5 °F /  24.7 °C 56.8 °F /  13.8 °C 30.37in /  1028.3hPa Calm   2mph /  3.2km/h 50.6% 0.00in /  0mm 858 W/m2
10:24 77.1 °F /  25.1 °C 57.7 °F /  14.3 °C 30.37in /  1028.3hPa NE 0.4mph /  0.6km/h 3mph /  4.8km/h 51.2% 0.00in /  0mm 867 W/m2
10:29 77.7 °F /  25.4 °C 58 °F /  14.4 °C 30.37in /  1028.3hPa Calm   3mph /  4.8km/h 50.8% 0.00in /  0mm 875 W/m2
10:34 77.8 °F /  25.4 °C 58.1 °F /  14.5 °C 30.37in /  1028.3hPa NE 0.3mph /  0.5km/h 3mph /  4.8km/h 50.7% 0.00in /  0mm 882 W/m2
10:39 78 °F /  25.6 °C 57.1 °F /  13.9 °C 30.37in /  1028.3hPa ESE 0.2mph /  0.3km/h 4mph /  6.4km/h 48.7% 0.00in /  0mm 886 W/m2
10:44 78.1 °F /  25.6 °C 56.4 °F /  13.6 °C 30.37in /  1028.3hPa Calm   4mph /  6.4km/h 47.3% 0.00in /  0mm 898 W/m2
10:49 78.2 °F /  25.7 °C 57.5 °F /  14.2 °C 30.37in /  1028.3hPa ESE 0.5mph /  0.8km/h 4mph /  6.4km/h 49.1% 0.00in /  0mm 905 W/m2
10:54 78.2 °F /  25.7 °C 56 °F /  13.3 °C 30.37in /  1028.3hPa East 0.7mph /  1.1km/h 4mph /  6.4km/h 46.3% 0.00in /  0mm 918 W/m2
10:59 78.3 °F /  25.7 °C 56.1 °F /  13.4 °C 30.37in /  1028.3hPa ENE 0.5mph /  0.8km/h 4mph /  6.4km/h 46.5% 0.00in /  0mm 919 W/m2
11:04 78.4 °F /  25.8 °C 55.2 °F /  12.9 °C 30.37in /  1028.3hPa ENE 0.1mph /  0.2km/h 4mph /  6.4km/h 44.7% 0.00in /  0mm 930 W/m2
11:09 78.5 °F /  25.8 °C 55.5 °F /  13.1 °C 30.37in /  1028.3hPa East 0.7mph /  1.1km/h 6mph /  9.7km/h 45.1% 0.00in /  0mm 940 W/m2
11:14 78.4 °F /  25.8 °C 53.2 °F /  11.8 °C 30.37in /  1028.3hPa ENE 1mph /  1.6km/h 6mph /  9.7km/h 41.6% 0.00in /  0mm 946 W/m2
11:19 78.8 °F /  26 °C 53.6 °F /  12 °C 30.36in /  1028hPa ENE 1.6mph /  2.6km/h 6mph /  9.7km/h 41.7% 0.00in /  0mm 951 W/m2
11:24 79.2 °F /  26.2 °C 52.9 °F /  11.6 °C 30.36in /  1028hPa East 1.1mph /  1.8km/h 6mph /  9.7km/h 40.1% 0.00in /  0mm 954 W/m2
11:29 79.1 °F /  26.2 °C 52.1 °F /  11.2 °C 30.36in /  1028hPa ESE 0.5mph /  0.8km/h 6mph /  9.7km/h 39.1% 0.00in /  0mm 954 W/m2
11:34 78.7 °F /  25.9 °C 52.5 °F /  11.4 °C 30.36in /  1028hPa ESE 0.2mph /  0.3km/h 6mph /  9.7km/h 40.2% 0.00in /  0mm 963 W/m2
11:39 78.5 °F /  25.8 °C 53.6 °F /  12 °C 30.36in /  1028hPa South 0.6mph /  1km/h 6mph /  9.7km/h 42.2% 0.00in /  0mm 970 W/m2
11:44 78.5 °F /  25.8 °C 53.8 °F /  12.1 °C 30.36in /  1028hPa ESE 1.1mph /  1.8km/h 6mph /  9.7km/h 42.4% 0.00in /  0mm 983 W/m2
11:49 78.5 °F /  25.8 °C 52.9 °F /  11.6 °C 30.36in /  1028hPa SE 1.5mph /  2.4km/h 6mph /  9.7km/h 41.2% 0.00in /  0mm 997 W/m2
11:54 78.3 °F /  25.7 °C 53.6 °F /  12 °C 30.36in /  1028hPa SW 0.2mph /  0.3km/h 6mph /  9.7km/h 42.4% 0.00in /  0mm 1007 W/m2
11:59 78.6 °F /  25.9 °C 54.3 °F /  12.4 °C 30.36in /  1028hPa East 0.7mph /  1.1km/h 6mph /  9.7km/h 43% 0.00in /  0mm 1005 W/m2
12:00 78.9 °F /  26.1 °C 55.2 °F /  12.9 °C 30.36in /  1028hPa Calm   6mph /  9.7km/h 44% 0.00in /  0mm 990 W/m2
12:09 79.5 °F /  26.4 °C 54.5 °F /  12.5 °C 30.36in /  1028hPa East 0.4mph /  0.6km/h 3mph /  4.8km/h 42.1% 0.00in /  0mm 1016 W/m2
12:14 79.6 °F /  26.4 °C 53.8 °F /  12.1 °C 30.36in /  1028hPa ESE 0.9mph /  1.4km/h 5mph /  8km/h 40.9% 0.00in /  0mm 1005 W/m2
12:19 79.5 °F /  26.4 °C 53.3 °F /  11.8 °C 30.36in /  1028hPa ESE 0.4mph /  0.6km/h 5mph /  8km/h 40.3% 0.00in /  0mm 1009 W/m2
12:24 79.5 °F /  26.4 °C 53.3 °F /  11.8 °C 30.36in /  1028hPa ESE 0.1mph /  0.2km/h 5mph /  8km/h 40.3% 0.00in /  0mm 1011 W/m2
12:29 79.4 °F /  26.3 °C 51.4 °F /  10.8 °C 30.36in /  1028hPa SE 1.2mph /  1.9km/h 12mph /  19.3km/h 37.7% 0.00in /  0mm 1014 W/m2
12:34 79.1 °F /  26.2 °C 51.8 °F /  11 °C 30.36in /  1028hPa ENE 1.6mph /  2.6km/h 12mph /  19.3km/h 38.7% 0.00in /  0mm 1030 W/m2
12:39 79.3 °F /  26.3 °C 52.2 °F /  11.2 °C 30.36in /  1028hPa ENE 2.2mph /  3.5km/h 7mph /  11.3km/h 38.9% 0.00in /  0mm 1020 W/m2
12:44 79.5 °F /  26.4 °C 51.4 °F /  10.8 °C 30.35in /  1027.7hPa SE 0.9mph /  1.4km/h 7mph /  11.3km/h 37.6% 0.00in /  0mm 1016 W/m2
12:49 79.5 °F /  26.4 °C 51.8 °F /  11 °C 30.35in /  1027.7hPa SW 0.5mph /  0.8km/h 7mph /  11.3km/h 38.2% 0.00in /  0mm 1016 W/m2
12:54 79.5 °F /  26.4 °C 53 °F /  11.7 °C 30.35in /  1027.7hPa SW 0.4mph /  0.6km/h 7mph /  11.3km/h 39.8% 0.00in /  0mm 1014 W/m2
12:59 79.4 °F /  26.3 °C 52.2 °F /  11.2 °C 30.36in /  1028hPa SSW 0.3mph /  0.5km/h 7mph /  11.3km/h 38.8% 0.00in /  0mm 1018 W/m2
13:04 79.5 °F /  26.4 °C 52.2 °F /  11.2 °C 30.36in /  1028hPa SE 0.3mph /  0.5km/h 7mph /  11.3km/h 38.7% 0.00in /  0mm 1018 W/m2
13:09 79.6 °F /  26.4 °C 51.8 °F /  11 °C 30.35in /  1027.7hPa SSW 1.3mph /  2.1km/h 5mph /  8km/h 38.1% 0.00in /  0mm 1018 W/m2
13:14 79.8 °F /  26.6 °C 52.6 °F /  11.4 °C 30.35in /  1027.7hPa WSW 0.4mph /  0.6km/h 5mph /  8km/h 38.9% 0.00in /  0mm 1032 W/m2
13:19 80 °F /  26.7 °C 51.9 °F /  11.1 °C 30.36in /  1028hPa SSE 0.9mph /  1.4km/h 5mph /  8km/h 37.7% 0.00in /  0mm 1028 W/m2
13:24 79.6 °F /  26.4 °C 50.8 °F /  10.4 °C 30.35in /  1027.7hPa ESE 0.5mph /  0.8km/h 5mph /  8km/h 36.7% 0.00in /  0mm 1014 W/m2
13:29 79.3 °F /  26.3 °C 52 °F /  11.1 °C 30.35in /  1027.7hPa SSW 0.4mph /  0.6km/h 5mph /  8km/h 38.7% 0.00in /  0mm 1013 W/m2
13:34 79.6 °F /  26.4 °C 53.1 °F /  11.7 °C 30.35in /  1027.7hPa West 1.3mph /  2.1km/h 5mph /  8km/h 39.9% 0.00in /  0mm 1007 W/m2
13:39 80 °F /  26.7 °C 52.3 °F /  11.3 °C 30.35in /  1027.7hPa SE 0.6mph /  1km/h 5mph /  8km/h 38.3% 0.00in /  0mm 1007 W/m2
13:44 79.8 °F /  26.6 °C 52.8 °F /  11.6 °C 30.35in /  1027.7hPa ESE 0.5mph /  0.8km/h 5mph /  8km/h 39.2% 0.00in /  0mm 1002 W/m2
13:49 79.8 °F /  26.6 °C 52.1 °F /  11.2 °C 30.35in /  1027.7hPa SSE 0.6mph /  1km/h 5mph /  8km/h 38.3% 0.00in /  0mm 1004 W/m2
13:54 79.8 °F /  26.6 °C 53.3 °F /  11.8 °C 30.34in /  1027.3hPa SSW 0.5mph /  0.8km/h 5mph /  8km/h 39.9% 0.00in /  0mm 1000 W/m2
13:59 80 °F /  26.7 °C 53.2 °F /  11.8 °C 30.35in /  1027.7hPa South 0.1mph /  0.2km/h 5mph /  8km/h 39.6% 0.00in /  0mm 995 W/m2
14:04 80 °F /  26.7 °C 54.3 °F /  12.4 °C 30.35in /  1027.7hPa South 0.4mph /  0.6km/h 5mph /  8km/h 41.1% 0.00in /  0mm 1005 W/m2
14:09 80.1 °F /  26.7 °C 54.7 °F /  12.6 °C 30.34in /  1027.3hPa SE 0.9mph /  1.4km/h 4mph /  6.4km/h 41.7% 0.00in /  0mm 1009 W/m2
14:14 79.8 °F /  26.6 °C 53.8 °F /  12.1 °C 30.35in /  1027.7hPa SE 1.4mph /  2.3km/h 6mph /  9.7km/h 40.6% 0.00in /  0mm 990 W/m2
14:19 79.5 °F /  26.4 °C 53.2 °F /  11.8 °C 30.35in /  1027.7hPa ESE 0.2mph /  0.3km/h 6mph /  9.7km/h 40.1% 0.00in /  0mm 1035 W/m2
14:24 79.5 °F /  26.4 °C 54.8 °F /  12.7 °C 30.35in /  1027.7hPa SE 0.2mph /  0.3km/h 6mph /  9.7km/h 42.6% 0.00in /  0mm 998 W/m2
14:29 79.4 °F /  26.3 °C 53.7 °F /  12.1 °C 30.35in /  1027.7hPa SE 0.3mph /  0.5km/h 6mph /  9.7km/h 41.1% 0.00in /  0mm 974 W/m2
14:34 79.2 °F /  26.2 °C 53.9 °F /  12.2 °C 30.34in /  1027.3hPa SE 0.5mph /  0.8km/h 6mph /  9.7km/h 41.7% 0.00in /  0mm 972 W/m2
14:39 79.1 °F /  26.2 °C 53.6 °F /  12 °C 30.33in /  1027hPa ESE 1.6mph /  2.6km/h 12mph /  19.3km/h 41.2% 0.00in /  0mm 947 W/m2
14:44 78.9 °F /  26.1 °C 53.9 °F /  12.2 °C 30.33in /  1027hPa ESE 0.6mph /  1km/h 12mph /  19.3km/h 42% 0.00in /  0mm 940 W/m2
14:49 79 °F /  26.1 °C 53.9 °F /  12.2 °C 30.34in /  1027.3hPa SSW 0.5mph /  0.8km/h 12mph /  19.3km/h 42% 0.00in /  0mm 933 W/m2
14:54 79 °F /  26.1 °C 53.7 °F /  12.1 °C 30.34in /  1027.3hPa SE 0.4mph /  0.6km/h 12mph /  19.3km/h 41.6% 0.00in /  0mm 928 W/m2
14:59 79 °F /  26.1 °C 53.3 °F /  11.8 °C 30.34in /  1027.3hPa SSE 0.4mph /  0.6km/h 12mph /  19.3km/h 41% 0.00in /  0mm 916 W/m2
15:04 78.9 °F /  26.1 °C 53.4 °F /  11.9 °C 30.34in /  1027.3hPa SSE 0.7mph /  1.1km/h 12mph /  19.3km/h 41.3% 0.00in /  0mm 912 W/m2
15:09 78.7 °F /  25.9 °C 53.2 °F /  11.8 °C 30.34in /  1027.3hPa SE 0.2mph /  0.3km/h 3mph /  4.8km/h 41.3% 0.00in /  0mm 902 W/m2
15:14 78.6 °F /  25.9 °C 53.5 °F /  11.9 °C 30.34in /  1027.3hPa SSW 0.4mph /  0.6km/h 4mph /  6.4km/h 41.9% 0.00in /  0mm 893 W/m2
15:19 78.6 °F /  25.9 °C 54.1 °F /  12.3 °C 30.34in /  1027.3hPa South 1mph /  1.6km/h 6mph /  9.7km/h 42.8% 0.00in /  0mm 893 W/m2
15:24 78.4 °F /  25.8 °C 53.7 °F /  12.1 °C 30.33in /  1027hPa ESE 0.9mph /  1.4km/h 6mph /  9.7km/h 42.5% 0.00in /  0mm 881 W/m2
15:29 77.9 °F /  25.5 °C 54 °F /  12.2 °C 30.33in /  1027hPa ESE 0.5mph /  0.8km/h 6mph /  9.7km/h 43.6% 0.00in /  0mm 860 W/m2
15:34 77.7 °F /  25.4 °C 53.8 °F /  12.1 °C 30.33in /  1027hPa ESE 0.7mph /  1.1km/h 6mph /  9.7km/h 43.5% 0.00in /  0mm 851 W/m2
15:39 77.7 °F /  25.4 °C 54.3 °F /  12.4 °C 30.33in /  1027hPa ESE 0.9mph /  1.4km/h 5mph /  8km/h 44.3% 0.00in /  0mm 840 W/m2
15:44 77.7 °F /  25.4 °C 54.2 °F /  12.3 °C 30.33in /  1027hPa ESE 0.5mph /  0.8km/h 6mph /  9.7km/h 44.2% 0.00in /  0mm 831 W/m2
15:49 77.6 °F /  25.3 °C 53.7 °F /  12.1 °C 30.33in /  1027hPa ESE 0.1mph /  0.2km/h 6mph /  9.7km/h 43.5% 0.00in /  0mm 817 W/m2
15:54 77.7 °F /  25.4 °C 54.4 °F /  12.4 °C 30.33in /  1027hPa ESE 0.2mph /  0.3km/h 6mph /  9.7km/h 44.5% 0.00in /  0mm 807 W/m2
15:59 77.9 °F /  25.5 °C 54.5 °F /  12.5 °C 30.33in /  1027hPa SE 0.2mph /  0.3km/h 6mph /  9.7km/h 44.4% 0.00in /  0mm 793 W/m2
16:00 77.9 °F /  25.5 °C 54.9 °F /  12.7 °C 30.33in /  1027hPa Calm   6mph /  9.7km/h 45% 0.00in /  0mm 780 W/m2
16:09 77.8 °F /  25.4 °C 54.3 °F /  12.4 °C 30.33in /  1027hPa East 0.2mph /  0.3km/h 2mph /  3.2km/h 44.2% 0.00in /  0mm 766 W/m2
16:14 77.6 °F /  25.3 °C 53.6 °F /  12 °C 30.33in /  1027hPa ESE 0.5mph /  0.8km/h 3mph /  4.8km/h 43.4% 0.00in /  0mm 758 W/m2
16:19 77.1 °F /  25.1 °C 53.7 °F /  12.1 °C 30.32in /  1026.6hPa SE 0.6mph /  1km/h 3mph /  4.8km/h 44.2% 0.00in /  0mm 747 W/m2
16:24 76.8 °F /  24.9 °C 53.9 °F /  12.2 °C 30.32in /  1026.6hPa SSE 0.2mph /  0.3km/h 6mph /  9.7km/h 45% 0.00in /  0mm 40 W/m2
16:29 76.5 °F /  24.7 °C 53.4 °F /  11.9 °C 30.32in /  1026.6hPa SE 0.5mph /  0.8km/h 6mph /  9.7km/h 44.6% 0.00in /  0mm 39 W/m2
16:34 76.2 °F /  24.6 °C 53.3 °F /  11.8 °C 30.32in /  1026.6hPa SSE 0.3mph /  0.5km/h 6mph /  9.7km/h 44.9% 0.00in /  0mm 39 W/m2
16:39 75.9 °F /  24.4 °C 53 °F /  11.7 °C 30.31in /  1026.3hPa SSW 0.4mph /  0.6km/h 5mph /  8km/h 44.9% 0.00in /  0mm 37 W/m2
16:44 75.7 °F /  24.3 °C 53.1 °F /  11.7 °C 30.31in /  1026.3hPa SSW 0.7mph /  1.1km/h 5mph /  8km/h 45.4% 0.00in /  0mm 37 W/m2
16:49 75.7 °F /  24.3 °C 53.3 °F /  11.8 °C 30.31in /  1026.3hPa SSE 0.4mph /  0.6km/h 5mph /  8km/h 45.7% 0.00in /  0mm 37 W/m2
16:54 75.7 °F /  24.3 °C 53.3 °F /  11.8 °C 30.30in /  1026hPa South 0.1mph /  0.2km/h 5mph /  8km/h 45.8% 0.00in /  0mm 35 W/m2
16:59 75.6 °F /  24.2 °C 53.3 °F /  11.8 °C 30.30in /  1026hPa SW 0.1mph /  0.2km/h 5mph /  8km/h 45.9% 0.00in /  0mm 35 W/m2
17:04 75.5 °F /  24.2 °C 52.9 °F /  11.6 °C 30.31in /  1026.3hPa SW 0.1mph /  0.2km/h 5mph /  8km/h 45.3% 0.00in /  0mm 35 W/m2
17:09 75.5 °F /  24.2 °C 52.9 °F /  11.6 °C 30.30in /  1026hPa SE 0.6mph /  1km/h 3mph /  4.8km/h 45.4% 0.00in /  0mm 35 W/m2
17:14 75.3 °F /  24.1 °C 53.2 °F /  11.8 °C 30.30in /  1026hPa ESE 0.3mph /  0.5km/h 3mph /  4.8km/h 46.1% 0.00in /  0mm 33 W/m2
17:19 75.3 °F /  24.1 °C 53 °F /  11.7 °C 30.30in /  1026hPa East 0.5mph /  0.8km/h 3mph /  4.8km/h 45.8% 0.00in /  0mm 33 W/m2
17:24 75.2 °F /  24 °C 52.8 °F /  11.6 °C 30.30in /  1026hPa Calm   3mph /  4.8km/h 45.7% 0.00in /  0mm 33 W/m2
17:29 75.1 °F /  23.9 °C 52.7 °F /  11.5 °C 30.30in /  1026hPa Calm   3mph /  4.8km/h 45.5% 0.00in /  0mm 32 W/m2
17:34 75.1 °F /  23.9 °C 52.6 °F /  11.4 °C 30.30in /  1026hPa SE 0.4mph /  0.6km/h 3mph /  4.8km/h 45.5% 0.00in /  0mm 32 W/m2
17:39 75.1 °F /  23.9 °C 52 °F /  11.1 °C 30.29in /  1025.6hPa SE 1.1mph /  1.8km/h 5mph /  8km/h 44.4% 0.00in /  0mm 32 W/m2
17:44 75 °F /  23.9 °C 51.9 °F /  11.1 °C 30.29in /  1025.6hPa SSE 0.1mph /  0.2km/h 5mph /  8km/h 44.4% 0.00in /  0mm 32 W/m2
17:49 75 °F /  23.9 °C 52.3 °F /  11.3 °C 30.29in /  1025.6hPa SE 0.3mph /  0.5km/h 5mph /  8km/h 45.2% 0.00in /  0mm 30 W/m2
17:54 74.9 °F /  23.8 °C 52 °F /  11.1 °C 30.29in /  1025.6hPa ESE 0.1mph /  0.2km/h 5mph /  8km/h 44.8% 0.00in /  0mm 30 W/m2
17:59 74.8 °F /  23.8 °C 51.7 °F /  10.9 °C 30.29in /  1025.6hPa ESE 0.1mph /  0.2km/h 5mph /  8km/h 44.5% 0.00in /  0mm 30 W/m2
18:04 74.6 °F /  23.7 °C 51.9 °F /  11.1 °C 30.29in /  1025.6hPa ESE 0.2mph /  0.3km/h 5mph /  8km/h 45% 0.00in /  0mm 30 W/m2
18:09 74.3 °F /  23.5 °C 52 °F /  11.1 °C 30.29in /  1025.6hPa SE 0.3mph /  0.5km/h 5mph /  8km/h 45.7% 0.00in /  0mm 30 W/m2
18:14 74.1 °F /  23.4 °C 52.3 °F /  11.3 °C 30.29in /  1025.6hPa South 0.5mph /  0.8km/h 5mph /  8km/h 46.5% 0.00in /  0mm 28 W/m2
18:19 73.9 °F /  23.3 °C 52.8 °F /  11.6 °C 30.29in /  1025.6hPa South 0.3mph /  0.5km/h 5mph /  8km/h 47.7% 0.00in /  0mm 28 W/m2
18:24 73.6 °F /  23.1 °C 53.3 °F /  11.8 °C 30.29in /  1025.6hPa South 0.2mph /  0.3km/h 5mph /  8km/h 48.9% 0.00in /  0mm 28 W/m2
18:29 73.5 °F /  23.1 °C 54.1 °F /  12.3 °C 30.29in /  1025.6hPa ESE 1.2mph /  1.9km/h 6mph /  9.7km/h 50.7% 0.00in /  0mm 28 W/m2
18:34 73.3 °F /  22.9 °C 55 °F /  12.8 °C 30.29in /  1025.6hPa ESE 0.4mph /  0.6km/h 6mph /  9.7km/h 52.8% 0.00in /  0mm 26 W/m2
18:39 73.1 °F /  22.8 °C 55.6 °F /  13.1 °C 30.29in /  1025.6hPa SE 0.2mph /  0.3km/h 3mph /  4.8km/h 54.3% 0.00in /  0mm 26 W/m2
18:44 73 °F /  22.8 °C 55.9 °F /  13.3 °C 30.29in /  1025.6hPa SE 0.4mph /  0.6km/h 4mph /  6.4km/h 55% 0.00in /  0mm 26 W/m2
18:49 72.8 °F /  22.7 °C 56.2 °F /  13.4 °C 30.29in /  1025.6hPa SE 0.2mph /  0.3km/h 4mph /  6.4km/h 55.9% 0.00in /  0mm 25 W/m2
18:54 72.5 °F /  22.5 °C 56 °F /  13.3 °C 30.29in /  1025.6hPa South 0.6mph /  1km/h 4mph /  6.4km/h 56% 0.00in /  0mm 25 W/m2
18:59 72.2 °F /  22.3 °C 56 °F /  13.3 °C 30.29in /  1025.6hPa SE 0.5mph /  0.8km/h 5mph /  8km/h 56.7% 0.00in /  0mm 25 W/m2
19:04 71.9 °F /  22.2 °C 55.5 °F /  13.1 °C 30.29in /  1025.6hPa South 0.1mph /  0.2km/h 5mph /  8km/h 56.2% 0.00in /  0mm 23 W/m2
19:09 71.7 °F /  22.1 °C 55.5 °F /  13.1 °C 30.29in /  1025.6hPa South 0.2mph /  0.3km/h 2mph /  3.2km/h 56.7% 0.00in /  0mm 23 W/m2
19:14 71.5 °F /  21.9 °C 55.1 °F /  12.8 °C 30.29in /  1025.6hPa SSW 0.5mph /  0.8km/h 9mph /  14.5km/h 56.2% 0.00in /  0mm 23 W/m2
19:19 71.3 °F /  21.8 °C 54.7 °F /  12.6 °C 30.29in /  1025.6hPa South 0.1mph /  0.2km/h 9mph /  14.5km/h 55.8% 0.00in /  0mm 21 W/m2
19:24 71 °F /  21.7 °C 54.9 °F /  12.7 °C 30.30in /  1026hPa South 0.1mph /  0.2km/h 9mph /  14.5km/h 56.8% 0.00in /  0mm 21 W/m2
19:29 70.8 °F /  21.6 °C 54.9 °F /  12.7 °C 30.30in /  1026hPa Calm   9mph /  14.5km/h 57.2% 0.00in /  0mm 19 W/m2
19:34 70.6 °F /  21.4 °C 54.6 °F /  12.6 °C 30.30in /  1026hPa Calm   9mph /  14.5km/h 57% 0.00in /  0mm 19 W/m2
19:39 70.3 °F /  21.3 °C 54.9 °F /  12.7 °C 30.31in /  1026.3hPa South 0.3mph /  0.5km/h 2mph /  3.2km/h 58% 0.00in /  0mm 18 W/m2
19:44 70 °F /  21.1 °C 54.6 °F /  12.6 °C 30.31in /  1026.3hPa South 0.3mph /  0.5km/h 3mph /  4.8km/h 58% 0.00in /  0mm 18 W/m2
19:49 69.7 °F /  20.9 °C 54.4 °F /  12.4 °C 30.31in /  1026.3hPa South 0.2mph /  0.3km/h 3mph /  4.8km/h 58.2% 0.00in /  0mm 16 W/m2
19:54 69.5 °F /  20.8 °C 54.7 °F /  12.6 °C 30.31in /  1026.3hPa Calm   3mph /  4.8km/h 59.3% 0.00in /  0mm 14 W/m2
19:59 69.3 °F /  20.7 °C 54.8 °F /  12.7 °C 30.31in /  1026.3hPa South 0.1mph /  0.2km/h 3mph /  4.8km/h 60% 0.00in /  0mm 12 W/m2
20:00 69.2 °F /  20.7 °C 54.7 °F /  12.6 °C 30.31in /  1026.3hPa Calm   3mph /  4.8km/h 60% 0.00in /  0mm 11 W/m2
20:09 68.7 °F /  20.4 °C 54.3 °F /  12.4 °C 30.31in /  1026.3hPa Calm     60% 0.00in /  0mm 9 W/m2
20:14 68.5 °F /  20.3 °C 53.9 °F /  12.2 °C 30.31in /  1026.3hPa South 0.1mph /  0.2km/h 1mph /  1.6km/h 59.5% 0.00in /  0mm 5 W/m2
20:19 68.2 °F /  20.1 °C 53.8 °F /  12.1 °C 30.32in /  1026.6hPa South 0.3mph /  0.5km/h 3mph /  4.8km/h 60% 0.00in /  0mm 0 W/m2
20:24 67.9 °F /  19.9 °C 53.6 °F /  12 °C 30.32in /  1026.6hPa South 0.2mph /  0.3km/h 3mph /  4.8km/h 60.1% 0.00in /  0mm 0 W/m2
20:29 67.7 °F /  19.8 °C 53.6 °F /  12 °C 30.32in /  1026.6hPa Calm   3mph /  4.8km/h 60.6% 0.00in /  0mm 0 W/m2
20:34 67.5 °F /  19.7 °C 53.6 °F /  12 °C 30.32in /  1026.6hPa Calm   3mph /  4.8km/h 61% 0.00in /  0mm 0 W/m2
20:39 67.2 °F /  19.6 °C 53.7 °F /  12.1 °C 30.32in /  1026.6hPa Calm     61.9% 0.00in /  0mm 0 W/m2
20:44 67 °F /  19.4 °C 53.6 °F /  12 °C 30.32in /  1026.6hPa Calm     62% 0.00in /  0mm 0 W/m2
20:49 66.7 °F /  19.3 °C 53.5 °F /  11.9 °C 30.32in /  1026.6hPa Calm     62.3% 0.00in /  0mm 0 W/m2
20:54 66.5 °F /  19.2 °C 53.6 °F /  12 °C 30.32in /  1026.6hPa Calm     63% 0.00in /  0mm 0 W/m2
20:59 66.3 °F /  19.1 °C 53.5 °F /  11.9 °C 30.32in /  1026.6hPa Calm     63.4% 0.00in /  0mm 0 W/m2
21:04 66.1 °F /  18.9 °C 53.4 °F /  11.9 °C 30.33in /  1027hPa Calm     63.6% 0.00in /  0mm 0 W/m2
21:09 65.9 °F /  18.8 °C 53.4 °F /  11.9 °C 30.33in /  1027hPa Calm     64% 0.00in /  0mm 0 W/m2
21:14 65.7 °F /  18.7 °C 53.2 °F /  11.8 °C 30.33in /  1027hPa Calm     64% 0.00in /  0mm 0 W/m2
21:19 65.5 °F /  18.6 °C 53.1 °F /  11.7 °C 30.33in /  1027hPa Calm     64.2% 0.00in /  0mm 0 W/m2
21:24 65.4 °F /  18.6 °C 53.3 °F /  11.8 °C 30.33in /  1027hPa Calm     65% 0.00in /  0mm 0 W/m2
21:28 65.2 °F /  18.4 °C 53.2 °F /  11.8 °C 30.33in /  1027hPa Calm     65.1% 0.00in /  0mm 0 W/m2
Hartford County Weather
Compliments of Weather Underground - 2 mb